sensor_id;sensor_type;location;lat;lon;timestamp;temperature;humidity
2226;DHT22;1119;48.288;8.726;2024-03-07T00:00:29;5.40;99.90
2226;DHT22;1119;48.288;8.726;2024-03-07T00:02:57;5.40;99.90
2226;DHT22;1119;48.288;8.726;2024-03-07T00:05:46;5.40;99.90
2226;DHT22;1119;48.288;8.726;2024-03-07T00:08:13;5.40;99.90
2226;DHT22;1119;48.288;8.726;2024-03-07T00:10:41;5.40;99.90
2226;DHT22;1119;48.288;8.726;2024-03-07T00:13:10;5.50;99.90
2226;DHT22;1119;48.288;8.726;2024-03-07T00:15:38;5.30;99.90
2226;DHT22;1119;48.288;8.726;2024-03-07T00:18:07;5.30;99.90
2226;DHT22;1119;48.288;8.726;2024-03-07T00:20:36;5.20;99.90
2226;DHT22;1119;48.288;8.726;2024-03-07T00:23:05;5.40;99.90
2226;DHT22;1119;48.288;8.726;2024-03-07T00:25:32;5.20;99.90
2226;DHT22;1119;48.288;8.726;2024-03-07T00:27:59;5.20;99.90
2226;DHT22;1119;48.288;8.726;2024-03-07T00:30:28;5.30;99.90
2226;DHT22;1119;48.288;8.726;2024-03-07T00:32:56;5.20;99.90
2226;DHT22;1119;48.288;8.726;2024-03-07T00:35:25;5.20;99.90
2226;DHT22;1119;48.288;8.726;2024-03-07T00:37:53;5.40;99.90
2226;DHT22;1119;48.288;8.726;2024-03-07T00:40:22;5.10;99.90
2226;DHT22;1119;48.288;8.726;2024-03-07T00:42:49;5.20;99.90
2226;DHT22;1119;48.288;8.726;2024-03-07T00:45:16;5.20;99.90
2226;DHT22;1119;48.288;8.726;2024-03-07T00:47:44;5.20;99.90
2226;DHT22;1119;48.288;8.726;2024-03-07T00:50:11;5.20;99.90
2226;DHT22;1119;48.288;8.726;2024-03-07T00:55:45;5.20;99.90
2226;DHT22;1119;48.288;8.726;2024-03-07T00:57:00;5.20;99.90
2226;DHT22;1119;48.288;8.726;2024-03-07T00:59:28;5.10;99.90
2226;DHT22;1119;48.288;8.726;2024-03-07T01:01:55;5.10;99.90
2226;DHT22;1119;48.288;8.726;2024-03-07T01:04:23;5.10;99.90
2226;DHT22;1119;48.288;8.726;2024-03-07T01:06:50;5.10;99.90
2226;DHT22;1119;48.288;8.726;2024-03-07T01:09:18;5.20;99.90
2226;DHT22;1119;48.288;8.726;2024-03-07T01:11:45;5.10;99.90
2226;DHT22;1119;48.288;8.726;2024-03-07T01:14:15;5.10;99.90
2226;DHT22;1119;48.288;8.726;2024-03-07T01:16:42;5.10;99.90
2226;DHT22;1119;48.288;8.726;2024-03-07T01:19:09;5.10;99.90
2226;DHT22;1119;48.288;8.726;2024-03-07T01:21:37;5.10;99.90
2226;DHT22;1119;48.288;8.726;2024-03-07T01:24:05;5.10;99.90
2226;DHT22;1119;48.288;8.726;2024-03-07T01:26:32;5.10;99.90
2226;DHT22;1119;48.288;8.726;2024-03-07T01:29:00;5.10;99.90
2226;DHT22;1119;48.288;8.726;2024-03-07T01:31:29;5.10;99.90
2226;DHT22;1119;48.288;8.726;2024-03-07T01:33:56;5.10;99.90
2226;DHT22;1119;48.288;8.726;2024-03-07T01:36:23;5.10;99.90
2226;DHT22;1119;48.288;8.726;2024-03-07T01:38:51;5.10;99.90
2226;DHT22;1119;48.288;8.726;2024-03-07T01:41:18;5.20;99.90
2226;DHT22;1119;48.288;8.726;2024-03-07T01:43:45;5.00;99.90
2226;DHT22;1119;48.288;8.726;2024-03-07T01:46:13;5.00;99.90
2226;DHT22;1119;48.288;8.726;2024-03-07T01:48:42;5.10;99.90
2226;DHT22;1119;48.288;8.726;2024-03-07T01:51:10;5.00;99.90
2226;DHT22;1119;48.288;8.726;2024-03-07T01:53:38;4.90;99.90
2226;DHT22;1119;48.288;8.726;2024-03-07T01:56:06;4.80;99.90
2226;DHT22;1119;48.288;8.726;2024-03-07T01:58:35;4.80;99.90
2226;DHT22;1119;48.288;8.726;2024-03-07T02:01:03;4.80;99.90
2226;DHT22;1119;48.288;8.726;2024-03-07T02:03:31;4.70;99.90
2226;DHT22;1119;48.288;8.726;2024-03-07T02:05:59;4.70;99.90
2226;DHT22;1119;48.288;8.726;2024-03-07T02:08:28;4.80;99.90
2226;DHT22;1119;48.288;8.726;2024-03-07T02:10:57;4.80;99.90
2226;DHT22;1119;48.288;8.726;2024-03-07T02:13:25;4.70;99.90
2226;DHT22;1119;48.288;8.726;2024-03-07T02:15:52;4.70;99.90
2226;DHT22;1119;48.288;8.726;2024-03-07T02:18:20;4.60;99.90
2226;DHT22;1119;48.288;8.726;2024-03-07T02:20:49;4.60;99.90
2226;DHT22;1119;48.288;8.726;2024-03-07T02:23:16;4.70;99.90
2226;DHT22;1119;48.288;8.726;2024-03-07T02:25:44;4.50;99.90
2226;DHT22;1119;48.288;8.726;2024-03-07T02:28:11;4.60;99.90
2226;DHT22;1119;48.288;8.726;2024-03-07T02:30:38;4.60;99.90
2226;DHT22;1119;48.288;8.726;2024-03-07T02:33:06;4.60;99.90
2226;DHT22;1119;48.288;8.726;2024-03-07T02:35:33;4.60;99.90
2226;DHT22;1119;48.288;8.726;2024-03-07T02:38:03;4.50;99.90
2226;DHT22;1119;48.288;8.726;2024-03-07T02:40:31;4.40;99.90
2226;DHT22;1119;48.288;8.726;2024-03-07T02:42:59;4.40;99.90
2226;DHT22;1119;48.288;8.726;2024-03-07T02:45:27;4.50;99.90
2226;DHT22;1119;48.288;8.726;2024-03-07T02:47:55;4.40;99.90
2226;DHT22;1119;48.288;8.726;2024-03-07T02:50:23;4.30;99.90
2226;DHT22;1119;48.288;8.726;2024-03-07T02:52:51;4.20;99.90
2226;DHT22;1119;48.288;8.726;2024-03-07T02:55:19;4.20;99.90
2226;DHT22;1119;48.288;8.726;2024-03-07T02:57:47;4.10;99.90
2226;DHT22;1119;48.288;8.726;2024-03-07T03:00:15;4.20;99.90
2226;DHT22;1119;48.288;8.726;2024-03-07T03:02:55;4.10;99.90
2226;DHT22;1119;48.288;8.726;2024-03-07T03:05:23;4.10;99.90
2226;DHT22;1119;48.288;8.726;2024-03-07T03:07:51;4.00;99.90
2226;DHT22;1119;48.288;8.726;2024-03-07T03:10:24;4.00;99.90
2226;DHT22;1119;48.288;8.726;2024-03-07T03:12:55;3.90;99.90
2226;DHT22;1119;48.288;8.726;2024-03-07T03:15:24;4.00;99.90
2226;DHT22;1119;48.288;8.726;2024-03-07T03:17:52;3.90;99.90
2226;DHT22;1119;48.288;8.726;2024-03-07T03:20:19;3.90;99.90
2226;DHT22;1119;48.288;8.726;2024-03-07T03:22:59;4.20;99.90
2226;DHT22;1119;48.288;8.726;2024-03-07T03:25:30;4.10;99.90
2226;DHT22;1119;48.288;8.726;2024-03-07T03:28:00;4.00;99.90
2226;DHT22;1119;48.288;8.726;2024-03-07T03:30:29;4.20;99.90
2226;DHT22;1119;48.288;8.726;2024-03-07T03:32:58;4.00;99.90
2226;DHT22;1119;48.288;8.726;2024-03-07T03:35:26;4.00;99.90
2226;DHT22;1119;48.288;8.726;2024-03-07T03:37:53;4.00;99.90
2226;DHT22;1119;48.288;8.726;2024-03-07T03:40:20;4.10;99.90
2226;DHT22;1119;48.288;8.726;2024-03-07T03:42:49;3.90;99.90
2226;DHT22;1119;48.288;8.726;2024-03-07T03:45:17;3.90;99.90
2226;DHT22;1119;48.288;8.726;2024-03-07T03:47:45;4.00;99.90
2226;DHT22;1119;48.288;8.726;2024-03-07T03:50:14;3.90;99.90
2226;DHT22;1119;48.288;8.726;2024-03-07T03:52:41;3.80;99.90
2226;DHT22;1119;48.288;8.726;2024-03-07T03:55:09;3.80;99.90
2226;DHT22;1119;48.288;8.726;2024-03-07T03:57:38;3.80;99.90
2226;DHT22;1119;48.288;8.726;2024-03-07T04:00:11;3.70;99.90
2226;DHT22;1119;48.288;8.726;2024-03-07T04:02:39;3.70;99.90
2226;DHT22;1119;48.288;8.726;2024-03-07T04:05:07;3.80;99.90
2226;DHT22;1119;48.288;8.726;2024-03-07T04:07:36;3.80;99.90
2226;DHT22;1119;48.288;8.726;2024-03-07T04:10:05;3.70;99.90
2226;DHT22;1119;48.288;8.726;2024-03-07T04:12:34;3.70;99.90
2226;DHT22;1119;48.288;8.726;2024-03-07T04:15:03;3.80;99.90
2226;DHT22;1119;48.288;8.726;2024-03-07T04:17:32;3.70;99.90
2226;DHT22;1119;48.288;8.726;2024-03-07T04:19:59;3.70;99.90
2226;DHT22;1119;48.288;8.726;2024-03-07T04:22:27;3.60;99.90
2226;DHT22;1119;48.288;8.726;2024-03-07T04:24:55;3.50;99.90
2226;DHT22;1119;48.288;8.726;2024-03-07T04:27:22;3.70;99.90
2226;DHT22;1119;48.288;8.726;2024-03-07T04:29:51;3.50;99.90
2226;DHT22;1119;48.288;8.726;2024-03-07T04:32:19;3.70;99.90
2226;DHT22;1119;48.288;8.726;2024-03-07T04:34:48;3.50;99.90
2226;DHT22;1119;48.288;8.726;2024-03-07T04:37:15;3.50;99.90
2226;DHT22;1119;48.288;8.726;2024-03-07T04:39:42;3.50;99.90
2226;DHT22;1119;48.288;8.726;2024-03-07T04:42:10;3.40;99.90
2226;DHT22;1119;48.288;8.726;2024-03-07T04:44:37;3.40;99.90
2226;DHT22;1119;48.288;8.726;2024-03-07T04:47:05;3.30;99.90
2226;DHT22;1119;48.288;8.726;2024-03-07T04:49:33;3.30;99.90
2226;DHT22;1119;48.288;8.726;2024-03-07T04:52:03;3.30;99.90
2226;DHT22;1119;48.288;8.726;2024-03-07T04:54:32;3.30;99.90
2226;DHT22;1119;48.288;8.726;2024-03-07T04:57:00;3.40;99.90
2226;DHT22;1119;48.288;8.726;2024-03-07T04:59:27;3.40;99.90
2226;DHT22;1119;48.288;8.726;2024-03-07T05:01:55;3.50;99.90
2226;DHT22;1119;48.288;8.726;2024-03-07T05:04:23;3.40;99.90
2226;DHT22;1119;48.288;8.726;2024-03-07T05:06:55;3.40;99.90
2226;DHT22;1119;48.288;8.726;2024-03-07T05:09:24;3.30;99.90
2226;DHT22;1119;48.288;8.726;2024-03-07T05:11:54;3.40;99.90
2226;DHT22;1119;48.288;8.726;2024-03-07T05:14:21;3.30;99.90
2226;DHT22;1119;48.288;8.726;2024-03-07T05:16:50;3.50;99.90
2226;DHT22;1119;48.288;8.726;2024-03-07T05:19:31;3.30;99.90
2226;DHT22;1119;48.288;8.726;2024-03-07T05:21:59;3.10;99.90
2226;DHT22;1119;48.288;8.726;2024-03-07T05:24:28;3.10;99.90
2226;DHT22;1119;48.288;8.726;2024-03-07T05:26:55;3.30;99.90
2226;DHT22;1119;48.288;8.726;2024-03-07T05:29:23;3.10;99.90
2226;DHT22;1119;48.288;8.726;2024-03-07T05:31:50;3.00;99.90
2226;DHT22;1119;48.288;8.726;2024-03-07T05:34:18;3.10;99.90
2226;DHT22;1119;48.288;8.726;2024-03-07T05:36:46;3.00;99.90
2226;DHT22;1119;48.288;8.726;2024-03-07T05:39:14;2.90;99.90
2226;DHT22;1119;48.288;8.726;2024-03-07T05:41:45;2.80;99.90
2226;DHT22;1119;48.288;8.726;2024-03-07T05:44:14;2.80;99.90
2226;DHT22;1119;48.288;8.726;2024-03-07T05:47:00;2.80;99.90
2226;DHT22;1119;48.288;8.726;2024-03-07T05:49:27;2.70;99.90
2226;DHT22;1119;48.288;8.726;2024-03-07T06:01:19;2.70;99.90
2226;DHT22;1119;48.288;8.726;2024-03-07T06:03:47;2.80;99.90
2226;DHT22;1119;48.288;8.726;2024-03-07T06:06:14;2.80;99.90
2226;DHT22;1119;48.288;8.726;2024-03-07T06:08:42;2.80;99.90
2226;DHT22;1119;48.288;8.726;2024-03-07T06:11:10;2.90;99.90
2226;DHT22;1119;48.288;8.726;2024-03-07T06:13:39;2.80;99.90
2226;DHT22;1119;48.288;8.726;2024-03-07T06:16:06;2.80;99.90
2226;DHT22;1119;48.288;8.726;2024-03-07T06:18:35;2.80;99.90
2226;DHT22;1119;48.288;8.726;2024-03-07T06:21:03;2.80;99.90
2226;DHT22;1119;48.288;8.726;2024-03-07T06:23:32;2.70;99.90
2226;DHT22;1119;48.288;8.726;2024-03-07T06:26:00;2.70;99.90
2226;DHT22;1119;48.288;8.726;2024-03-07T06:28:32;2.70;99.90
2226;DHT22;1119;48.288;8.726;2024-03-07T06:35:08;2.80;99.90
2226;DHT22;1119;48.288;8.726;2024-03-07T06:42:00;2.80;99.90
2226;DHT22;1119;48.288;8.726;2024-03-07T06:44:27;2.80;99.90
2226;DHT22;1119;48.288;8.726;2024-03-07T06:46:55;2.90;99.90
2226;DHT22;1119;48.288;8.726;2024-03-07T06:49:24;2.80;99.90
2226;DHT22;1119;48.288;8.726;2024-03-07T06:51:52;2.90;99.90
2226;DHT22;1119;48.288;8.726;2024-03-07T06:54:20;3.00;99.90
2226;DHT22;1119;48.288;8.726;2024-03-07T06:56:47;3.00;99.90
2226;DHT22;1119;48.288;8.726;2024-03-07T06:59:15;3.00;99.90
2226;DHT22;1119;48.288;8.726;2024-03-07T07:01:44;3.10;99.90
2226;DHT22;1119;48.288;8.726;2024-03-07T07:04:12;3.00;99.90
2226;DHT22;1119;48.288;8.726;2024-03-07T07:06:40;3.00;99.90
2226;DHT22;1119;48.288;8.726;2024-03-07T07:09:10;3.00;99.90
2226;DHT22;1119;48.288;8.726;2024-03-07T07:11:37;3.00;99.90
2226;DHT22;1119;48.288;8.726;2024-03-07T07:14:04;3.00;99.90
2226;DHT22;1119;48.288;8.726;2024-03-07T07:16:31;2.90;99.90
2226;DHT22;1119;48.288;8.726;2024-03-07T07:19:01;2.80;99.90
2226;DHT22;1119;48.288;8.726;2024-03-07T07:21:28;2.70;99.90
2226;DHT22;1119;48.288;8.726;2024-03-07T07:23:56;2.60;99.90
2226;DHT22;1119;48.288;8.726;2024-03-07T07:26:24;2.60;99.90
2226;DHT22;1119;48.288;8.726;2024-03-07T07:28:52;2.50;99.90
2226;DHT22;1119;48.288;8.726;2024-03-07T07:31:19;2.50;99.90
2226;DHT22;1119;48.288;8.726;2024-03-07T07:33:47;2.50;99.90
2226;DHT22;1119;48.288;8.726;2024-03-07T07:36:15;2.50;99.90
2226;DHT22;1119;48.288;8.726;2024-03-07T07:38:42;2.50;99.90
2226;DHT22;1119;48.288;8.726;2024-03-07T07:41:09;2.50;99.90
2226;DHT22;1119;48.288;8.726;2024-03-07T07:43:39;2.50;99.90
2226;DHT22;1119;48.288;8.726;2024-03-07T07:46:06;2.50;99.90
2226;DHT22;1119;48.288;8.726;2024-03-07T07:48:34;2.50;99.90
2226;DHT22;1119;48.288;8.726;2024-03-07T07:51:01;2.50;99.90
2226;DHT22;1119;48.288;8.726;2024-03-07T07:53:31;2.60;99.90
2226;DHT22;1119;48.288;8.726;2024-03-07T07:55:58;2.70;99.90
2226;DHT22;1119;48.288;8.726;2024-03-07T07:58:26;2.70;99.90
2226;DHT22;1119;48.288;8.726;2024-03-07T08:00:55;2.70;99.90
2226;DHT22;1119;48.288;8.726;2024-03-07T08:03:22;2.70;99.90
2226;DHT22;1119;48.288;8.726;2024-03-07T08:05:49;2.60;99.90
2226;DHT22;1119;48.288;8.726;2024-03-07T08:08:17;2.60;99.90
2226;DHT22;1119;48.288;8.726;2024-03-07T08:10:44;2.60;99.90
2226;DHT22;1119;48.288;8.726;2024-03-07T08:13:12;2.60;99.90
2226;DHT22;1119;48.288;8.726;2024-03-07T08:15:39;2.60;99.90
2226;DHT22;1119;48.288;8.726;2024-03-07T08:18:08;2.60;99.90
2226;DHT22;1119;48.288;8.726;2024-03-07T08:20:36;2.60;99.90
2226;DHT22;1119;48.288;8.726;2024-03-07T08:23:04;2.60;99.90
2226;DHT22;1119;48.288;8.726;2024-03-07T08:25:32;2.60;99.90
2226;DHT22;1119;48.288;8.726;2024-03-07T08:28:00;2.70;99.90
2226;DHT22;1119;48.288;8.726;2024-03-07T08:30:27;2.70;99.90
2226;DHT22;1119;48.288;8.726;2024-03-07T08:32:57;2.70;99.90
2226;DHT22;1119;48.288;8.726;2024-03-07T08:35:26;2.60;99.90
2226;DHT22;1119;48.288;8.726;2024-03-07T08:37:55;2.60;99.90
2226;DHT22;1119;48.288;8.726;2024-03-07T08:40:24;2.60;99.90
2226;DHT22;1119;48.288;8.726;2024-03-07T08:42:52;2.60;99.90
2226;DHT22;1119;48.288;8.726;2024-03-07T08:45:21;2.60;99.90
2226;DHT22;1119;48.288;8.726;2024-03-07T08:47:49;2.60;99.90
2226;DHT22;1119;48.288;8.726;2024-03-07T08:50:17;2.60;99.90
2226;DHT22;1119;48.288;8.726;2024-03-07T08:52:47;2.60;99.90
2226;DHT22;1119;48.288;8.726;2024-03-07T08:55:16;2.60;99.90
2226;DHT22;1119;48.288;8.726;2024-03-07T08:57:45;2.70;99.90
2226;DHT22;1119;48.288;8.726;2024-03-07T09:00:15;2.70;99.90
2226;DHT22;1119;48.288;8.726;2024-03-07T09:02:48;2.60;99.90
2226;DHT22;1119;48.288;8.726;2024-03-07T09:05:18;2.60;99.90
2226;DHT22;1119;48.288;8.726;2024-03-07T09:07:47;2.60;99.90
2226;DHT22;1119;48.288;8.726;2024-03-07T09:10:15;2.70;99.90
2226;DHT22;1119;48.288;8.726;2024-03-07T09:12:43;2.80;99.90
2226;DHT22;1119;48.288;8.726;2024-03-07T09:15:10;2.80;99.90
2226;DHT22;1119;48.288;8.726;2024-03-07T09:17:39;2.80;99.90
2226;DHT22;1119;48.288;8.726;2024-03-07T09:20:07;2.70;99.90
2226;DHT22;1119;48.288;8.726;2024-03-07T09:22:40;2.70;99.90
2226;DHT22;1119;48.288;8.726;2024-03-07T09:25:09;2.70;99.90
2226;DHT22;1119;48.288;8.726;2024-03-07T09:27:38;2.70;99.90
2226;DHT22;1119;48.288;8.726;2024-03-07T09:30:07;2.80;99.90
2226;DHT22;1119;48.288;8.726;2024-03-07T09:32:38;2.80;99.90
2226;DHT22;1119;48.288;8.726;2024-03-07T09:35:07;2.90;99.90
2226;DHT22;1119;48.288;8.726;2024-03-07T09:37:39;2.90;99.90
2226;DHT22;1119;48.288;8.726;2024-03-07T09:40:09;2.90;99.90
2226;DHT22;1119;48.288;8.726;2024-03-07T09:42:42;2.90;99.90
2226;DHT22;1119;48.288;8.726;2024-03-07T09:45:15;2.90;99.90
2226;DHT22;1119;48.288;8.726;2024-03-07T09:47:45;3.00;99.90
2226;DHT22;1119;48.288;8.726;2024-03-07T09:50:16;3.00;99.90
2226;DHT22;1119;48.288;8.726;2024-03-07T09:52:46;3.00;99.90
2226;DHT22;1119;48.288;8.726;2024-03-07T09:55:16;3.00;99.90
2226;DHT22;1119;48.288;8.726;2024-03-07T09:57:46;3.00;99.90
2226;DHT22;1119;48.288;8.726;2024-03-07T10:00:16;3.00;99.90
2226;DHT22;1119;48.288;8.726;2024-03-07T10:02:53;3.10;99.90
2226;DHT22;1119;48.288;8.726;2024-03-07T10:05:22;3.10;99.90
2226;DHT22;1119;48.288;8.726;2024-03-07T10:07:51;3.10;99.90
2226;DHT22;1119;48.288;8.726;2024-03-07T10:10:20;3.20;99.90
2226;DHT22;1119;48.288;8.726;2024-03-07T10:12:48;3.30;99.90
2226;DHT22;1119;48.288;8.726;2024-03-07T10:15:15;3.30;99.90
2226;DHT22;1119;48.288;8.726;2024-03-07T10:17:44;3.30;99.90
2226;DHT22;1119;48.288;8.726;2024-03-07T10:20:12;3.30;99.90
2226;DHT22;1119;48.288;8.726;2024-03-07T10:22:41;3.30;99.90
2226;DHT22;1119;48.288;8.726;2024-03-07T10:25:08;3.30;99.90
2226;DHT22;1119;48.288;8.726;2024-03-07T10:27:38;3.40;99.90
2226;DHT22;1119;48.288;8.726;2024-03-07T10:30:06;3.40;99.90
2226;DHT22;1119;48.288;8.726;2024-03-07T10:32:34;3.50;99.90
2226;DHT22;1119;48.288;8.726;2024-03-07T10:35:03;3.50;99.90
2226;DHT22;1119;48.288;8.726;2024-03-07T10:37:34;3.50;99.90
2226;DHT22;1119;48.288;8.726;2024-03-07T10:40:03;3.50;99.90
2226;DHT22;1119;48.288;8.726;2024-03-07T10:42:45;3.60;99.90
2226;DHT22;1119;48.288;8.726;2024-03-07T10:45:18;3.60;99.90
2226;DHT22;1119;48.288;8.726;2024-03-07T10:47:52;3.60;99.90
2226;DHT22;1119;48.288;8.726;2024-03-07T10:50:30;3.60;99.90
2226;DHT22;1119;48.288;8.726;2024-03-07T10:53:14;3.70;99.90
2226;DHT22;1119;48.288;8.726;2024-03-07T10:56:11;3.70;99.90
2226;DHT22;1119;48.288;8.726;2024-03-07T10:58:55;3.70;99.90
2226;DHT22;1119;48.288;8.726;2024-03-07T11:01:29;3.70;99.90
2226;DHT22;1119;48.288;8.726;2024-03-07T11:03:59;3.80;99.90
2226;DHT22;1119;48.288;8.726;2024-03-07T11:06:30;3.80;99.90
2226;DHT22;1119;48.288;8.726;2024-03-07T11:09:00;3.90;99.90
2226;DHT22;1119;48.288;8.726;2024-03-07T11:11:37;3.90;99.90
2226;DHT22;1119;48.288;8.726;2024-03-07T11:14:08;4.00;99.90
2226;DHT22;1119;48.288;8.726;2024-03-07T11:16:37;4.00;99.90
2226;DHT22;1119;48.288;8.726;2024-03-07T11:19:19;4.10;99.90
2226;DHT22;1119;48.288;8.726;2024-03-07T11:21:52;4.10;99.90
2226;DHT22;1119;48.288;8.726;2024-03-07T11:24:27;4.00;99.90
2226;DHT22;1119;48.288;8.726;2024-03-07T11:26:56;4.10;99.90
2226;DHT22;1119;48.288;8.726;2024-03-07T11:29:41;4.20;99.90
2226;DHT22;1119;48.288;8.726;2024-03-07T11:32:10;4.20;99.90
2226;DHT22;1119;48.288;8.726;2024-03-07T11:34:41;4.30;99.90
2226;DHT22;1119;48.288;8.726;2024-03-07T11:37:17;4.30;99.90
2226;DHT22;1119;48.288;8.726;2024-03-07T11:39:48;4.40;99.90
2226;DHT22;1119;48.288;8.726;2024-03-07T11:42:26;4.50;99.90
2226;DHT22;1119;48.288;8.726;2024-03-07T11:44:58;4.60;99.90
2226;DHT22;1119;48.288;8.726;2024-03-07T11:47:35;4.70;99.90
2226;DHT22;1119;48.288;8.726;2024-03-07T11:50:08;4.80;99.90
2226;DHT22;1119;48.288;8.726;2024-03-07T11:52:37;4.90;99.90
2226;DHT22;1119;48.288;8.726;2024-03-07T11:55:08;4.80;99.90
2226;DHT22;1119;48.288;8.726;2024-03-07T11:57:35;4.80;99.90
2226;DHT22;1119;48.288;8.726;2024-03-07T12:00:10;4.80;99.90
2226;DHT22;1119;48.288;8.726;2024-03-07T12:02:39;4.80;99.90
2226;DHT22;1119;48.288;8.726;2024-03-07T12:05:09;4.80;99.90
2226;DHT22;1119;48.288;8.726;2024-03-07T12:08:10;4.70;99.90
2226;DHT22;1119;48.288;8.726;2024-03-07T12:10:41;4.70;99.90
2226;DHT22;1119;48.288;8.726;2024-03-07T12:22:26;4.50;99.90
2226;DHT22;1119;48.288;8.726;2024-03-07T12:25:01;4.50;99.90
2226;DHT22;1119;48.288;8.726;2024-03-07T12:27:34;4.50;99.90
2226;DHT22;1119;48.288;8.726;2024-03-07T12:30:23;4.60;99.90
2226;DHT22;1119;48.288;8.726;2024-03-07T12:32:55;4.70;99.90
2226;DHT22;1119;48.288;8.726;2024-03-07T12:35:24;4.60;99.90
2226;DHT22;1119;48.288;8.726;2024-03-07T12:42:00;4.40;99.90
2226;DHT22;1119;48.288;8.726;2024-03-07T12:45:08;4.50;99.90
2226;DHT22;1119;48.288;8.726;2024-03-07T12:47:53;4.20;99.90
2226;DHT22;1119;48.288;8.726;2024-03-07T12:50:22;4.50;99.90
2226;DHT22;1119;48.288;8.726;2024-03-07T12:52:50;4.10;99.90
2226;DHT22;1119;48.288;8.726;2024-03-07T12:55:19;4.20;99.90
2226;DHT22;1119;48.288;8.726;2024-03-07T12:57:47;4.40;99.90
2226;DHT22;1119;48.288;8.726;2024-03-07T13:00:16;4.10;99.90
2226;DHT22;1119;48.288;8.726;2024-03-07T13:02:49;4.10;99.90
2226;DHT22;1119;48.288;8.726;2024-03-07T13:05:16;4.20;99.90
2226;DHT22;1119;48.288;8.726;2024-03-07T13:07:48;4.10;99.90
2226;DHT22;1119;48.288;8.726;2024-03-07T13:10:16;4.20;99.90
2226;DHT22;1119;48.288;8.726;2024-03-07T13:12:47;4.20;99.90
2226;DHT22;1119;48.288;8.726;2024-03-07T13:15:16;4.20;99.90
2226;DHT22;1119;48.288;8.726;2024-03-07T13:17:44;4.30;99.90
2226;DHT22;1119;48.288;8.726;2024-03-07T13:20:12;4.30;99.90
2226;DHT22;1119;48.288;8.726;2024-03-07T13:22:41;4.40;99.90
2226;DHT22;1119;48.288;8.726;2024-03-07T13:25:13;4.40;99.90
2226;DHT22;1119;48.288;8.726;2024-03-07T13:27:52;4.50;99.90
2226;DHT22;1119;48.288;8.726;2024-03-07T13:30:26;4.60;99.90
2226;DHT22;1119;48.288;8.726;2024-03-07T13:32:55;4.70;99.90
2226;DHT22;1119;48.288;8.726;2024-03-07T13:35:23;4.70;99.90
2226;DHT22;1119;48.288;8.726;2024-03-07T13:37:52;4.80;99.90
2226;DHT22;1119;48.288;8.726;2024-03-07T13:40:22;4.70;99.90
2226;DHT22;1119;48.288;8.726;2024-03-07T13:42:56;4.70;99.90
2226;DHT22;1119;48.288;8.726;2024-03-07T13:45:26;4.70;99.90
2226;DHT22;1119;48.288;8.726;2024-03-07T13:47:58;4.80;99.90
2226;DHT22;1119;48.288;8.726;2024-03-07T13:50:45;5.00;99.90
2226;DHT22;1119;48.288;8.726;2024-03-07T13:53:15;4.90;99.90
2226;DHT22;1119;48.288;8.726;2024-03-07T13:56:16;5.00;99.90
2226;DHT22;1119;48.288;8.726;2024-03-07T13:59:47;5.00;99.90
2226;DHT22;1119;48.288;8.726;2024-03-07T14:03:59;5.20;99.90
2226;DHT22;1119;48.288;8.726;2024-03-07T14:06:54;5.30;99.90
2226;DHT22;1119;48.288;8.726;2024-03-07T14:10:00;5.30;99.90
2226;DHT22;1119;48.288;8.726;2024-03-07T14:13:22;5.30;99.90
2226;DHT22;1119;48.288;8.726;2024-03-07T14:16:43;5.30;99.90
2226;DHT22;1119;48.288;8.726;2024-03-07T14:19:44;5.20;99.90
2226;DHT22;1119;48.288;8.726;2024-03-07T14:22:44;5.10;99.90
2226;DHT22;1119;48.288;8.726;2024-03-07T14:25:44;5.00;99.90
2226;DHT22;1119;48.288;8.726;2024-03-07T14:28:42;5.00;99.90
2226;DHT22;1119;48.288;8.726;2024-03-07T14:31:16;5.00;99.90
2226;DHT22;1119;48.288;8.726;2024-03-07T14:34:02;4.90;99.90
2226;DHT22;1119;48.288;8.726;2024-03-07T14:36:38;4.80;99.90
2226;DHT22;1119;48.288;8.726;2024-03-07T14:39:11;4.80;99.90
2226;DHT22;1119;48.288;8.726;2024-03-07T14:41:45;4.70;99.90
2226;DHT22;1119;48.288;8.726;2024-03-07T14:44:18;4.60;99.90
2226;DHT22;1119;48.288;8.726;2024-03-07T14:46:51;4.50;99.90
2226;DHT22;1119;48.288;8.726;2024-03-07T14:49:21;4.50;99.90
2226;DHT22;1119;48.288;8.726;2024-03-07T14:51:55;4.50;99.90
2226;DHT22;1119;48.288;8.726;2024-03-07T14:54:22;4.50;99.90
2226;DHT22;1119;48.288;8.726;2024-03-07T14:56:50;4.60;99.90
2226;DHT22;1119;48.288;8.726;2024-03-07T14:59:18;4.60;99.90
2226;DHT22;1119;48.288;8.726;2024-03-07T15:01:46;4.70;99.90
2226;DHT22;1119;48.288;8.726;2024-03-07T15:04:14;4.70;99.90
2226;DHT22;1119;48.288;8.726;2024-03-07T15:06:43;4.70;99.90
2226;DHT22;1119;48.288;8.726;2024-03-07T15:09:11;4.70;99.90
2226;DHT22;1119;48.288;8.726;2024-03-07T15:11:39;4.70;99.90
2226;DHT22;1119;48.288;8.726;2024-03-07T15:14:07;4.80;99.90
2226;DHT22;1119;48.288;8.726;2024-03-07T15:16:35;4.80;99.90
2226;DHT22;1119;48.288;8.726;2024-03-07T15:19:03;4.70;99.90
2226;DHT22;1119;48.288;8.726;2024-03-07T15:21:31;4.70;99.90
2226;DHT22;1119;48.288;8.726;2024-03-07T15:23:59;4.70;99.90
2226;DHT22;1119;48.288;8.726;2024-03-07T15:26:27;4.80;99.90
2226;DHT22;1119;48.288;8.726;2024-03-07T15:28:57;4.80;99.90
2226;DHT22;1119;48.288;8.726;2024-03-07T15:31:25;4.80;99.90
2226;DHT22;1119;48.288;8.726;2024-03-07T15:33:53;4.80;99.90
2226;DHT22;1119;48.288;8.726;2024-03-07T15:36:21;4.80;99.90
2226;DHT22;1119;48.288;8.726;2024-03-07T15:38:48;4.90;99.90
2226;DHT22;1119;48.288;8.726;2024-03-07T15:41:17;4.90;99.90
2226;DHT22;1119;48.288;8.726;2024-03-07T15:43:45;4.80;99.90
2226;DHT22;1119;48.288;8.726;2024-03-07T15:46:13;4.80;99.90
2226;DHT22;1119;48.288;8.726;2024-03-07T15:48:44;4.90;99.90
2226;DHT22;1119;48.288;8.726;2024-03-07T15:51:12;4.90;99.90
2226;DHT22;1119;48.288;8.726;2024-03-07T15:53:40;4.90;99.90
2226;DHT22;1119;48.288;8.726;2024-03-07T15:56:07;4.90;99.90
2226;DHT22;1119;48.288;8.726;2024-03-07T15:58:36;4.90;99.90
2226;DHT22;1119;48.288;8.726;2024-03-07T16:01:05;4.90;99.90
2226;DHT22;1119;48.288;8.726;2024-03-07T16:03:32;4.90;99.90
2226;DHT22;1119;48.288;8.726;2024-03-07T16:06:00;5.00;99.90
2226;DHT22;1119;48.288;8.726;2024-03-07T16:08:28;5.10;99.90
2226;DHT22;1119;48.288;8.726;2024-03-07T16:10:55;5.10;99.90
2226;DHT22;1119;48.288;8.726;2024-03-07T16:13:22;5.20;99.90
2226;DHT22;1119;48.288;8.726;2024-03-07T16:15:51;5.20;99.90
2226;DHT22;1119;48.288;8.726;2024-03-07T16:18:18;5.20;99.90
2226;DHT22;1119;48.288;8.726;2024-03-07T16:20:49;5.30;99.90
2226;DHT22;1119;48.288;8.726;2024-03-07T16:23:16;5.40;99.90
2226;DHT22;1119;48.288;8.726;2024-03-07T16:25:44;5.50;99.90
2226;DHT22;1119;48.288;8.726;2024-03-07T16:28:11;5.60;99.90
2226;DHT22;1119;48.288;8.726;2024-03-07T16:30:39;5.70;99.90
2226;DHT22;1119;48.288;8.726;2024-03-07T16:33:11;5.70;99.90
2226;DHT22;1119;48.288;8.726;2024-03-07T16:35:38;5.70;99.90
2226;DHT22;1119;48.288;8.726;2024-03-07T16:38:05;5.70;99.90
2226;DHT22;1119;48.288;8.726;2024-03-07T16:40:35;5.70;99.90
2226;DHT22;1119;48.288;8.726;2024-03-07T16:43:04;5.70;99.90
2226;DHT22;1119;48.288;8.726;2024-03-07T16:45:35;5.70;99.90
2226;DHT22;1119;48.288;8.726;2024-03-07T16:48:05;5.70;99.90
2226;DHT22;1119;48.288;8.726;2024-03-07T16:50:36;5.80;99.90
2226;DHT22;1119;48.288;8.726;2024-03-07T16:53:06;5.80;99.90
2226;DHT22;1119;48.288;8.726;2024-03-07T16:55:34;5.80;99.90
2226;DHT22;1119;48.288;8.726;2024-03-07T16:58:02;5.80;99.90
2226;DHT22;1119;48.288;8.726;2024-03-07T17:00:30;5.80;99.90
2226;DHT22;1119;48.288;8.726;2024-03-07T17:02:58;5.70;99.90
2226;DHT22;1119;48.288;8.726;2024-03-07T17:05:27;5.60;99.90
2226;DHT22;1119;48.288;8.726;2024-03-07T17:07:56;5.60;99.90
2226;DHT22;1119;48.288;8.726;2024-03-07T17:10:27;5.60;99.90
2226;DHT22;1119;48.288;8.726;2024-03-07T17:12:55;5.50;99.90